Time,TemperatureF,DewpointF,PressureIn,WindDirection,WindDirectionDegrees,WindSpeedMPH,WindSpeedGustMPH,Humidity,HourlyPrecipIn,Conditions,Clouds,dailyrainin,SolarRadiationWatts/m^2,SoftwareType,DateUTC
2013-05-12 00:21:00,31.0,27.0,-100.00,NNW,336,1.0,3.0,85,0.00,,,0.00,0.000000,,2013-05-12 06:21:00,
2013-05-12 00:32:00,31.0,27.0,-100.00,NNW,336,1.0,3.0,85,0.00,,,0.00,0.000000,,2013-05-12 06:32:00,
2013-05-12 00:42:00,31.0,27.0,-100.00,NNW,336,1.0,3.0,85,0.00,,,0.00,0.000000,,2013-05-12 06:42:00,
2013-05-12 00:52:00,31.0,27.0,-100.00,NNW,336,1.0,3.0,85,0.00,,,0.00,0.000000,,2013-05-12 06:52:00,
2013-05-12 01:21:00,30.0,26.0,-100.00,NNW,334,1.0,4.0,86,0.00,,,0.00,0.000000,,2013-05-12 07:21:00,
2013-05-12 01:32:00,30.0,26.0,-100.00,NNW,334,1.0,4.0,86,0.00,,,0.00,0.000000,,2013-05-12 07:32:00,
2013-05-12 01:42:00,30.0,26.0,-100.00,NNW,334,1.0,4.0,86,0.00,,,0.00,0.000000,,2013-05-12 07:42:00,
2013-05-12 01:52:00,30.0,26.0,-100.00,NNW,334,1.0,4.0,86,0.00,,,0.00,0.000000,,2013-05-12 07:52:00,
2013-05-12 02:21:00,30.0,27.0,-100.00,NNW,329,3.0,4.0,88,0.00,,,0.00,0.000000,,2013-05-12 08:21:00,
2013-05-12 02:32:00,30.0,27.0,-100.00,NNW,329,3.0,4.0,88,0.00,,,0.00,0.000000,,2013-05-12 08:32:00,
2013-05-12 02:42:00,30.0,27.0,-100.00,NNW,329,3.0,4.0,88,0.00,,,0.00,0.000000,,2013-05-12 08:42:00,
2013-05-12 02:52:00,30.0,27.0,-100.00,NNW,329,3.0,4.0,88,0.00,,,0.00,0.000000,,2013-05-12 08:52:00,
2013-05-12 03:21:00,30.0,27.0,-100.00,NNW,331,3.0,5.0,88,0.00,,,0.00,0.000000,,2013-05-12 09:21:00,
2013-05-12 03:33:00,30.0,27.0,-100.00,NNW,331,3.0,5.0,88,0.00,,,0.00,0.000000,,2013-05-12 09:33:00,
2013-05-12 03:42:00,30.0,27.0,-100.00,NNW,331,3.0,5.0,88,0.00,,,0.00,0.000000,,2013-05-12 09:42:00,
2013-05-12 03:52:00,30.0,27.0,-100.00,NNW,331,3.0,5.0,88,0.00,,,0.00,0.000000,,2013-05-12 09:52:00,
2013-05-12 04:22:00,30.0,27.0,-100.00,NNW,335,3.0,4.0,89,0.00,,,0.00,0.000000,,2013-05-12 10:22:00,
2013-05-12 04:33:00,30.0,27.0,-100.00,NNW,335,3.0,4.0,89,0.00,,,0.00,0.000000,,2013-05-12 10:33:00,
2013-05-12 04:42:00,30.0,27.0,-100.00,NNW,335,3.0,4.0,89,0.00,,,0.00,0.000000,,2013-05-12 10:42:00,
2013-05-12 04:52:00,30.0,27.0,-100.00,NNW,335,3.0,4.0,89,0.00,,,0.00,0.000000,,2013-05-12 10:52:00,
2013-05-12 05:22:00,29.0,27.0,-100.00,NNW,335,3.0,5.0,91,0.00,,,0.00,0.000000,,2013-05-12 11:22:00,
2013-05-12 05:32:00,29.0,27.0,-100.00,NNW,335,3.0,5.0,91,0.00,,,0.00,0.000000,,2013-05-12 11:32:00,
2013-05-12 05:42:00,29.0,27.0,-100.00,NNW,335,3.0,5.0,91,0.00,,,0.00,0.000000,,2013-05-12 11:42:00,
2013-05-12 05:52:00,29.0,27.0,-100.00,NNW,335,3.0,5.0,91,0.00,,,0.00,0.000000,,2013-05-12 11:52:00,
2013-05-12 06:21:00,30.0,28.0,-100.00,NNW,344,4.0,5.0,91,0.00,,,0.00,5.000000,,2013-05-12 12:21:00,
2013-05-12 06:32:00,30.0,28.0,-100.00,NNW,344,4.0,5.0,91,0.00,,,0.00,5.000000,,2013-05-12 12:32:00,
2013-05-12 06:41:00,30.0,28.0,-100.00,NNW,344,4.0,5.0,91,0.00,,,0.00,5.000000,,2013-05-12 12:41:00,
2013-05-12 06:51:00,30.0,28.0,-100.00,NNW,344,4.0,5.0,91,0.00,,,0.00,5.000000,,2013-05-12 12:51:00,
2013-05-12 07:21:00,37.0,32.0,-100.00,North,10,2.0,5.0,83,0.00,,,0.00,83.000000,,2013-05-12 13:21:00,
2013-05-12 07:32:00,37.0,32.0,-100.00,North,10,2.0,5.0,83,0.00,,,0.00,83.000000,,2013-05-12 13:32:00,
2013-05-12 07:42:00,37.0,32.0,-100.00,North,10,2.0,5.0,83,0.00,,,0.00,83.000000,,2013-05-12 13:42:00,
2013-05-12 07:52:00,37.0,32.0,-100.00,North,10,2.0,5.0,83,0.00,,,0.00,83.000000,,2013-05-12 13:52:00,
2013-05-12 08:21:00,54.0,37.0,-100.00,North,6,0.0,3.0,52,0.00,,,0.00,302.000000,,2013-05-12 14:21:00,
2013-05-12 08:32:00,54.0,37.0,-100.00,North,6,0.0,3.0,52,0.00,,,0.00,302.000000,,2013-05-12 14:32:00,
2013-05-12 08:42:00,54.0,37.0,-100.00,North,6,0.0,3.0,52,0.00,,,0.00,302.000000,,2013-05-12 14:42:00,
2013-05-12 08:52:00,54.0,37.0,-100.00,North,6,0.0,3.0,52,0.00,,,0.00,302.000000,,2013-05-12 14:52:00,
2013-05-12 09:21:00,61.0,35.0,-100.00,SE,139,3.0,5.0,37,0.00,,,0.00,494.000000,,2013-05-12 15:21:00,
2013-05-12 09:34:00,61.0,35.0,-100.00,SE,139,3.0,5.0,37,0.00,,,0.00,494.000000,,2013-05-12 15:34:00,
2013-05-12 09:42:00,61.0,35.0,-100.00,SE,139,3.0,5.0,37,0.00,,,0.00,494.000000,,2013-05-12 15:42:00,
2013-05-12 09:52:00,61.0,35.0,-100.00,SE,139,3.0,5.0,37,0.00,,,0.00,494.000000,,2013-05-12 15:52:00,
2013-05-12 10:23:00,64.0,32.0,-100.00,SSE,161,5.0,9.0,30,0.00,,,0.00,678.000000,,2013-05-12 16:23:00,
2013-05-12 10:33:00,64.0,32.0,-100.00,SSE,161,5.0,9.0,30,0.00,,,0.00,678.000000,,2013-05-12 16:33:00,
2013-05-12 10:42:00,64.0,32.0,-100.00,SSE,161,5.0,9.0,30,0.00,,,0.00,678.000000,,2013-05-12 16:42:00,
2013-05-12 10:52:00,64.0,32.0,-100.00,SSE,161,5.0,9.0,30,0.00,,,0.00,678.000000,,2013-05-12 16:52:00,
2013-05-12 11:22:00,70.0,35.0,-100.00,ESE,116,4.0,9.0,28,0.00,,,0.00,830.000000,,2013-05-12 17:22:00,
2013-05-12 11:32:00,70.0,35.0,-100.00,ESE,116,4.0,9.0,28,0.00,,,0.00,830.000000,,2013-05-12 17:32:00,
2013-05-12 11:42:00,70.0,35.0,-100.00,ESE,116,4.0,9.0,28,0.00,,,0.00,830.000000,,2013-05-12 17:42:00,
2013-05-12 11:52:00,70.0,35.0,-100.00,ESE,116,4.0,9.0,28,0.00,,,0.00,830.000000,,2013-05-12 17:52:00,
2013-05-12 12:22:00,70.0,34.0,-100.00,East,90,5.0,14.0,27,0.00,,,0.00,930.000000,,2013-05-12 18:22:00,
2013-05-12 12:32:00,70.0,34.0,-100.00,East,90,5.0,14.0,27,0.00,,,0.00,930.000000,,2013-05-12 18:32:00,
2013-05-12 12:42:00,70.0,34.0,-100.00,East,90,5.0,14.0,27,0.00,,,0.00,930.000000,,2013-05-12 18:42:00,
2013-05-12 12:51:00,70.0,34.0,-100.00,East,90,5.0,14.0,27,0.00,,,0.00,930.000000,,2013-05-12 18:51:00,
2013-05-12 13:21:00,70.0,34.0,-100.00,SE,146,10.0,17.0,27,0.00,,,0.00,976.000000,,2013-05-12 19:21:00,
2013-05-12 13:32:00,70.0,34.0,-100.00,SE,146,10.0,17.0,27,0.00,,,0.00,976.000000,,2013-05-12 19:32:00,
2013-05-12 13:42:00,70.0,34.0,-100.00,SE,146,10.0,17.0,27,0.00,,,0.00,976.000000,,2013-05-12 19:42:00,
2013-05-12 13:52:00,70.0,34.0,-100.00,SE,146,10.0,17.0,27,0.00,,,0.00,976.000000,,2013-05-12 19:52:00,
2013-05-12 14:21:00,70.0,34.0,-100.00,SSE,161,10.0,19.0,26,0.00,,,0.00,964.000000,,2013-05-12 20:21:00,
2013-05-12 14:32:00,70.0,34.0,-100.00,SSE,161,10.0,19.0,26,0.00,,,0.00,964.000000,,2013-05-12 20:32:00,
2013-05-12 14:42:00,70.0,34.0,-100.00,SSE,161,10.0,19.0,26,0.00,,,0.00,964.000000,,2013-05-12 20:42:00,
2013-05-12 14:51:00,70.0,34.0,-100.00,SSE,161,10.0,19.0,26,0.00,,,0.00,964.000000,,2013-05-12 20:51:00,
2013-05-12 15:21:00,72.0,35.0,-100.00,SSE,152,5.0,16.0,26,0.00,,,0.00,864.000000,,2013-05-12 21:21:00,
2013-05-12 15:33:00,72.0,35.0,-100.00,SSE,152,5.0,16.0,26,0.00,,,0.00,864.000000,,2013-05-12 21:33:00,
2013-05-12 15:42:00,72.0,35.0,-100.00,SSE,152,5.0,16.0,26,0.00,,,0.00,864.000000,,2013-05-12 21:42:00,
2013-05-12 15:53:00,72.0,35.0,-100.00,SSE,152,5.0,16.0,26,0.00,,,0.00,864.000000,,2013-05-12 21:53:00,
2013-05-12 16:23:00,71.0,35.0,-100.00,SE,140,8.0,16.0,27,0.00,,,0.00,721.000000,,2013-05-12 22:23:00,
2013-05-12 16:33:00,71.0,35.0,-100.00,SE,140,8.0,16.0,27,0.00,,,0.00,721.000000,,2013-05-12 22:33:00,
2013-05-12 16:42:00,71.0,35.0,-100.00,SE,140,8.0,16.0,27,0.00,,,0.00,721.000000,,2013-05-12 22:42:00,
2013-05-12 16:52:00,71.0,35.0,-100.00,SE,140,8.0,16.0,27,0.00,,,0.00,721.000000,,2013-05-12 22:52:00,
2013-05-12 17:22:00,70.0,36.0,-100.00,SSE,150,7.0,16.0,29,0.00,,,0.00,482.000000,,2013-05-12 23:22:00,
2013-05-12 17:32:00,70.0,36.0,-100.00,SSE,150,7.0,16.0,29,0.00,,,0.00,482.000000,,2013-05-12 23:32:00,
2013-05-12 17:42:00,70.0,36.0,-100.00,SSE,150,7.0,16.0,29,0.00,,,0.00,482.000000,,2013-05-12 23:42:00,
2013-05-12 17:52:00,70.0,36.0,-100.00,SSE,150,7.0,16.0,29,0.00,,,0.00,482.000000,,2013-05-12 23:52:00,
2013-05-12 18:21:00,69.0,37.0,-100.00,SSE,149,7.0,11.0,31,0.00,,,0.00,269.000000,,2013-05-13 00:21:00,
2013-05-12 18:32:00,69.0,37.0,-100.00,SSE,149,7.0,11.0,31,0.00,,,0.00,269.000000,,2013-05-13 00:32:00,
2013-05-12 18:42:00,69.0,37.0,-100.00,SSE,149,7.0,11.0,31,0.00,,,0.00,269.000000,,2013-05-13 00:42:00,
2013-05-12 18:51:00,69.0,37.0,-100.00,SSE,149,7.0,11.0,31,0.00,,,0.00,269.000000,,2013-05-13 00:51:00,
2013-05-12 19:22:00,66.0,38.0,-100.00,SSE,163,7.0,12.0,35,0.00,,,0.00,146.000000,,2013-05-13 01:22:00,
2013-05-12 19:31:00,66.0,38.0,-100.00,SSE,163,7.0,12.0,35,0.00,,,0.00,146.000000,,2013-05-13 01:31:00,
2013-05-12 19:42:00,66.0,38.0,-100.00,SSE,163,7.0,12.0,35,0.00,,,0.00,146.000000,,2013-05-13 01:42:00,
2013-05-12 19:52:00,66.0,38.0,-100.00,SSE,163,7.0,12.0,35,0.00,,,0.00,146.000000,,2013-05-13 01:52:00,
2013-05-12 20:21:00,59.0,41.0,-100.00,SE,133,0.0,12.0,52,0.00,,,0.00,31.000000,,2013-05-13 02:21:00,
2013-05-12 20:32:00,59.0,41.0,-100.00,SE,133,0.0,12.0,52,0.00,,,0.00,31.000000,,2013-05-13 02:32:00,
2013-05-12 20:41:00,59.0,41.0,-100.00,SE,133,0.0,12.0,52,0.00,,,0.00,31.000000,,2013-05-13 02:41:00,
2013-05-12 20:51:00,59.0,41.0,-100.00,SE,133,0.0,12.0,52,0.00,,,0.00,31.000000,,2013-05-13 02:51:00,
2013-05-12 21:21:00,53.0,39.0,-100.00,NNW,342,1.0,3.0,59,0.00,,,0.00,1.000000,,2013-05-13 03:21:00,
2013-05-12 21:32:00,53.0,39.0,-100.00,NNW,342,1.0,3.0,59,0.00,,,0.00,1.000000,,2013-05-13 03:32:00,
2013-05-12 21:42:00,53.0,39.0,-100.00,NNW,342,1.0,3.0,59,0.00,,,0.00,1.000000,,2013-05-13 03:42:00,
2013-05-12 21:52:00,53.0,39.0,-100.00,NNW,342,1.0,3.0,59,0.00,,,0.00,1.000000,,2013-05-13 03:52:00,
2013-05-12 22:23:00,50.0,39.0,-100.00,NNW,342,2.0,3.0,65,0.00,,,0.00,0.000000,,2013-05-13 04:23:00,
2013-05-12 22:32:00,50.0,39.0,-100.00,NNW,342,2.0,3.0,65,0.00,,,0.00,0.000000,,2013-05-13 04:32:00,
2013-05-12 22:42:00,50.0,39.0,-100.00,NNW,342,2.0,3.0,65,0.00,,,0.00,0.000000,,2013-05-13 04:42:00,
2013-05-12 22:52:00,50.0,39.0,-100.00,NNW,342,2.0,3.0,65,0.00,,,0.00,0.000000,,2013-05-13 04:52:00,
2013-05-12 23:21:00,48.0,39.0,-100.00,NNW,347,2.0,3.0,70,0.00,,,0.00,0.000000,,2013-05-13 05:21:00,
2013-05-12 23:32:00,48.0,39.0,-100.00,NNW,347,2.0,3.0,70,0.00,,,0.00,0.000000,,2013-05-13 05:32:00,
2013-05-12 23:42:00,48.0,39.0,-100.00,NNW,347,2.0,3.0,70,0.00,,,0.00,0.000000,,2013-05-13 05:42:00,
2013-05-12 23:52:00,48.0,39.0,-100.00,NNW,347,2.0,3.0,70,0.00,,,0.00,0.000000,,2013-05-13 05:52:00,